Time;durP1;ratioP1;P1;durP2;ratioP2;P2;SDS_P1;SDS_P2;PMS_P1;PMS_P2;Temp;Humidity;BMP_temperature;BMP_pressure;BME280_temperature;BME280_humidity;BME280_pressure;Samples;Min_cycle;Max_cycle;Signal;HPM_P1;HPM_P2
2022/09/04 00:01:57;;;;;;;30.95;23.48;;;;;;;15.55;83.41;101347.38;6129444;23;20005;-80
2022/09/04 00:04:37;;;;;;;28.85;23.38;;;;;;;15.54;83.56;101343.09;6155348;23;20447;-85
2022/09/04 00:07:38;;;;;;;29.88;23.85;;;;;;;15.51;83.91;101351.97;6155717;23;20002;-86
2022/09/04 00:10:30;;;;;;;28.67;23.60;;;;;;;15.43;84.25;101344.72;6135615;23;20009;-86
2022/09/04 00:13:18;;;;;;;28.10;23.77;;;;;;;15.34;84.33;101341.97;6155448;23;20013;-85
2022/09/04 00:15:51;;;;;;;29.83;23.35;;;;;;;15.35;84.36;101349.69;6154481;23;20017;-85
2022/09/04 00:18:28;;;;;;;31.75;24.10;;;;;;;15.37;84.55;101362.59;6155305;23;20088;-85
2022/09/04 00:21:01;;;;;;;30.95;24.00;;;;;;;15.22;84.68;101348.94;6155322;23;20053;-85
2022/09/04 00:23:40;;;;;;;30.92;24.73;;;;;;;15.29;84.86;101341.50;6155689;23;20006;-81
2022/09/04 00:26:20;;;;;;;27.30;23.15;;;;;;;15.33;85.05;101355.94;6155203;23;20032;-87
2022/09/04 00:28:52;;;;;;;29.10;24.08;;;;;;;15.24;85.11;101352.28;6155265;23;20044;-82
2022/09/04 00:31:37;;;;;;;31.33;25.23;;;;;;;15.25;85.23;101361.72;6155480;23;20068;-84
2022/09/04 00:34:17;;;;;;;31.95;24.20;;;;;;;15.22;84.86;101364.53;6129009;23;20036;-84
2022/09/04 00:36:49;;;;;;;31.35;24.33;;;;;;;15.13;85.45;101349.59;6128445;23;20013;-85
2022/09/04 00:39:19;;;;;;;30.17;24.15;;;;;;;15.09;85.43;101345.59;6155442;23;20059;-83
2022/09/04 00:41:55;;;;;;;28.13;23.30;;;;;;;15.13;85.67;101363.44;6155106;23;20005;-86
2022/09/04 00:44:23;;;;;;;30.48;24.30;;;;;;;15.11;86.04;101367.94;6155540;23;20002;-81
2022/09/04 00:47:13;;;;;;;30.20;24.67;;;;;;;15.09;86.14;101364.63;6155179;23;19998;-87
2022/09/04 00:49:50;;;;;;;31.65;24.42;;;;;;;15.10;86.03;101368.88;6155003;23;20010;-86
2022/09/04 00:52:37;;;;;;;28.08;23.80;;;;;;;15.10;86.15;101373.25;6129164;23;20017;-86
2022/09/04 00:55:41;;;;;;;31.10;26.00;;;;;;;15.07;85.76;101371.72;6129055;23;20340;-86
2022/09/04 00:58:30;;;;;;;31.35;23.92;;;;;;;14.91;85.82;101363.34;6154995;23;20012;-87
2022/09/04 01:00:58;;;;;;;30.60;25.05;;;;;;;14.86;86.63;101381.06;6155311;23;20081;-81
2022/09/04 01:03:41;;;;;;;30.30;25.98;;;;;;;14.85;86.43;101377.66;6155276;23;20501;-86
2022/09/04 01:06:11;;;;;;;32.33;25.30;;;;;;;14.67;86.79;101355.56;6155167;23;20013;-88
2022/09/04 01:09:14;;;;;;;29.13;25.38;;;;;;;14.83;86.45;101378.69;6155613;23;20002;-87
2022/09/04 01:11:50;;;;;;;34.08;25.73;;;;;;;14.64;86.70;101353.16;6155274;23;20422;-88
2022/09/04 01:14:25;;;;;;;31.85;25.92;;;;;;;14.79;87.17;101388.47;6128504;23;20005;-88
2022/09/04 01:17:03;;;;;;;35.30;26.42;;;;;;;14.75;87.50;101388.78;6155264;23;20006;-87
2022/09/04 01:19:56;;;;;;;35.45;25.67;;;;;;;14.72;87.54;101395.03;6155517;23;20113;-87
2022/09/04 01:22:59;;;;;;;30.27;25.05;;;;;;;14.67;87.42;101407.56;6155374;23;20001;-87
2022/09/04 01:25:31;;;;;;;31.50;24.95;;;;;;;14.55;87.93;101398.00;6155281;23;20013;-87
2022/09/04 01:28:09;;;;;;;32.28;26.67;;;;;;;14.56;89.07;101407.50;6154727;23;20339;-88
2022/09/04 01:30:47;;;;;;;32.78;26.85;;;;;;;14.55;88.79;101404.06;6155096;23;20088;-88
2022/09/04 01:33:37;;;;;;;36.20;26.90;;;;;;;14.47;88.30;101390.78;6155013;23;20029;-88
2022/09/04 01:36:38;;;;;;;32.72;26.48;;;;;;;14.52;87.89;101412.06;6154925;23;20052;-85
2022/09/04 01:39:03;;;;;;;34.70;26.23;;;;;;;14.42;88.83;101411.00;6007911;23;20015;-88
2022/09/04 01:41:34;;;;;;;33.47;26.23;;;;;;;14.41;89.25;101411.94;6008076;23;20424;-87
2022/09/04 01:44:02;;;;;;;30.13;25.50;;;;;;;14.30;88.90;101406.66;6007622;23;20068;-87
2022/09/04 01:46:51;;;;;;;33.78;26.80;;;;;;;14.35;89.33;101415.81;6008207;23;20083;-88
2022/09/04 01:49:35;;;;;;;31.55;25.33;;;;;;;14.33;89.36;101419.44;6008024;23;20007;-87
2022/09/04 01:52:25;;;;;;;32.35;26.25;;;;;;;14.30;89.45;101422.25;6008007;23;20472;-87
2022/09/04 01:55:12;;;;;;;31.98;25.40;;;;;;;14.30;89.76;101423.09;6024585;23;20014;-88
2022/09/04 01:57:45;;;;;;;33.17;26.42;;;;;;;14.26;90.04;101416.44;6036092;23;20061;-87
2022/09/04 02:00:12;;;;;;;33.58;27.40;;;;;;;14.20;90.18;101422.06;6036384;23;20011;-85
2022/09/04 02:02:48;;;;;;;31.15;27.48;;;;;;;14.18;90.76;101418.75;6037378;23;20011;-86
2022/09/04 02:05:19;;;;;;;32.17;27.33;;;;;;;14.19;91.00;101435.16;6038080;23;20094;-86
2022/09/04 02:07:53;;;;;;;34.33;27.55;;;;;;;14.16;90.74;101435.34;6037411;23;20014;-85
2022/09/04 02:10:40;;;;;;;31.95;26.35;;;;;;;14.16;90.29;101438.81;6010064;23;20007;-87
2022/09/04 02:13:21;;;;;;;37.28;28.77;;;;;;;14.13;90.85;101435.56;6009481;23;20015;-88
2022/09/04 02:16:41;;;;;;;36.33;28.33;;;;;;;14.16;90.68;101445.72;6108448;23;20033;-88
2022/09/04 02:19:22;;;;;;;33.65;27.27;;;;;;;14.03;90.69;101432.75;6066409;23;20017;-88
2022/09/04 02:21:51;;;;;;;;;;;;;;;14.21;88.72;101452.28;6067057;23;20783;-88
2022/09/04 02:24:19;;;;;;;36.28;29.13;;;;;;;14.12;91.39;101444.28;6066644;23;19916;-88
2022/09/04 02:27:07;;;;;;;35.28;29.88;;;;;;;14.10;91.45;101454.78;6066294;23;20046;-88
2022/09/04 02:29:43;;;;;;;36.70;28.33;;;;;;;14.07;92.17;101452.41;6066321;23;20082;-88
2022/09/04 02:32:11;;;;;;;34.63;28.30;;;;;;;14.04;91.93;101452.59;6066440;23;20034;-86
2022/09/04 02:34:39;;;;;;;36.97;29.67;;;;;;;14.01;92.23;101453.66;6066424;23;20400;-85
2022/09/04 02:37:19;;;;;;;38.78;29.88;;;;;;;13.99;92.17;101452.09;6066444;23;20010;-88
2022/09/04 02:40:10;;;;;;;35.30;28.63;;;;;;;14.03;92.65;101458.72;6066312;23;20010;-87
2022/09/04 02:42:45;;;;;;;36.15;28.00;;;;;;;14.03;92.33;101458.72;6066371;23;20093;-87
2022/09/04 02:45:29;;;;;;;34.78;28.77;;;;;;;13.97;92.60;101454.78;6066251;23;20496;-86
2022/09/04 02:48:02;;;;;;;34.17;28.13;;;;;;;13.99;92.86;101458.13;6066169;23;20007;-87
2022/09/04 02:50:37;;;;;;;35.03;29.33;;;;;;;13.94;92.59;101462.78;6066277;23;20049;-85
2022/09/04 02:53:44;;;;;;;34.97;28.25;;;;;;;13.93;92.21;101463.72;6066241;23;20099;-88
2022/09/04 02:56:19;;;;;;;35.28;27.48;;;;;;;13.95;92.46;101467.03;6156359;23;20005;-88
2022/09/04 02:59:18;;;;;;;33.70;27.83;;;;;;;13.96;92.56;101470.44;6156428;23;20016;-88
2022/09/04 03:01:58;;;;;;;34.75;27.10;;;;;;;13.86;92.83;101459.84;6156413;23;20006;-87
2022/09/04 03:04:32;;;;;;;32.53;25.92;;;;;;;13.92;92.79;101472.44;6156740;23;20004;-87
2022/09/04 03:07:36;;;;;;;33.15;26.67;;;;;;;13.85;93.40;101481.56;6156100;23;20516;-86
2022/09/04 03:10:13;;;;;;;35.13;26.42;;;;;;;13.81;93.78;101479.28;6065837;23;20463;-87
2022/09/04 03:12:46;;;;;;;37.72;26.90;;;;;;;13.59;94.20;101453.91;6065925;23;20015;-88
2022/09/04 03:15:27;;;;;;;28.90;24.67;;;;;;;13.82;94.90;101486.97;6065824;23;20464;-88
2022/09/04 03:17:57;;;;;;;31.17;25.13;;;;;;;13.87;95.23;101487.50;6066406;23;20007;-85
2022/09/04 03:20:26;;;;;;;31.83;25.03;;;;;;;13.85;95.82;101484.16;6066077;23;20011;-87
2022/09/04 03:23:05;;;;;;;32.45;24.48;;;;;;;13.91;96.06;101482.94;6066107;23;20023;-85
2022/09/04 03:26:08;;;;;;;30.30;24.13;;;;;;;13.92;96.14;101475.03;6066042;23;20138;-87
2022/09/04 03:29:01;;;;;;;31.52;23.77;;;;;;;13.92;96.31;101480.22;6065930;23;20428;-88
2022/09/04 03:31:49;;;;;;;27.98;23.55;;;;;;;13.93;96.38;101481.06;6065891;23;20023;-87
2022/09/04 03:34:39;;;;;;;29.30;22.63;;;;;;;13.85;97.73;101473.75;6066002;23;20042;-87
2022/09/04 03:37:16;;;;;;;30.58;23.63;;;;;;;13.95;97.35;101486.97;6065834;23;20066;-88
2022/09/04 03:40:00;;;;;;;31.55;23.92;;;;;;;13.95;97.06;101486.97;6065943;23;20010;-88
2022/09/04 03:42:58;;;;;;;29.30;23.13;;;;;;;13.93;97.58;101496.63;6065800;23;20034;-88
2022/09/04 03:45:50;;;;;;;30.17;23.75;;;;;;;13.91;97.14;101486.34;6155654;23;20001;-87
2022/09/04 03:48:40;;;;;;;27.25;22.98;;;;;;;13.89;97.41;101490.00;6148452;23;20032;-88
2022/09/04 03:51:37;;;;;;;29.25;21.77;;;;;;;13.90;97.42;101494.25;6155809;23;20001;-88
2022/09/04 03:54:22;;;;;;;29.27;22.50;;;;;;;13.92;97.80;101498.41;6150583;23;20009;-87
2022/09/04 03:57:25;;;;;;;31.10;22.88;;;;;;;13.90;98.27;101497.69;6155773;23;20140;-88
2022/09/04 04:00:18;;;;;;;28.10;22.60;;;;;;;13.82;97.50;101497.34;6155694;23;20006;-88
2022/09/04 04:03:16;;;;;;;27.90;21.80;;;;;;;13.83;97.64;101493.81;6155793;23;20072;-88
2022/09/04 04:05:52;;;;;;;29.92;23.20;;;;;;;13.82;97.76;101499.94;6155684;23;20491;-88
2022/09/04 04:08:47;;;;;;;29.77;21.92;;;;;;;13.80;97.37;101504.41;6156113;23;20023;-88
2022/09/04 04:11:34;;;;;;;27.85;22.38;;;;;;;13.76;97.78;101506.38;6155608;23;20313;-87
2022/09/04 04:14:34;;;;;;;29.00;21.17;;;;;;;13.75;97.92;101509.88;6155618;23;20416;-84
2022/09/04 04:17:36;;;;;;;28.13;21.95;;;;;;;13.74;97.86;101512.59;6154958;23;20478;-86
2022/09/04 04:20:10;;;;;;;32.42;21.70;;;;;;;13.71;97.89;101512.78;6156452;23;20032;-86
2022/09/04 04:22:57;;;;;;;30.17;22.00;;;;;;;13.71;99.22;101517.97;6155453;23;20010;-87
2022/09/04 04:25:31;;;;;;;28.42;22.02;;;;;;;13.76;99.59;101523.69;6155481;23;20002;-83
2022/09/04 04:28:32;;;;;;;28.15;20.38;;;;;;;13.71;98.48;101523.19;6155226;23;20021;-84
2022/09/04 04:31:38;;;;;;;27.10;21.35;;;;;;;13.64;98.62;101514.13;6155065;23;20013;-87
2022/09/04 04:34:18;;;;;;;27.48;21.08;;;;;;;13.69;98.32;101525.88;6007395;23;20012;-84
2022/09/04 04:36:52;;;;;;;26.40;21.25;;;;;;;13.68;98.55;101534.59;6008154;23;20016;-84
2022/09/04 04:39:23;;;;;;;29.13;21.83;;;;;;;13.70;98.74;101532.72;6008355;23;20044;-86
2022/09/04 04:42:31;;;;;;;29.55;21.80;;;;;;;13.66;98.40;101525.22;6008357;23;20360;-87
2022/09/04 04:48:14;;;;;;;29.92;21.73;;;;;;;13.66;99.02;101530.41;6008342;23;20019;-84
2022/09/04 04:51:10;;;;;;;28.27;21.02;;;;;;;13.65;99.31;101544.31;6008112;23;20153;-88
2022/09/04 04:54:06;;;;;;;30.88;21.58;;;;;;;13.62;99.54;101537.56;6008399;23;20071;-88
2022/09/04 04:56:56;;;;;;;26.10;19.92;;;;;;;13.64;99.51;101547.84;6008308;23;20094;-87
2022/09/04 04:59:33;;;;;;;27.75;21.10;;;;;;;13.66;99.33;101545.97;6008243;23;20031;-85
2022/09/04 05:02:20;;;;;;;31.08;20.48;;;;;;;13.67;99.72;101545.09;6012463;23;20018;-88
2022/09/04 05:04:53;;;;;;;28.45;21.20;;;;;;;13.69;99.65;101551.00;6036640;23;20018;-87
2022/09/04 05:07:34;;;;;;;30.88;22.23;;;;;;;13.66;100.00;101528.66;6036742;23;20011;-81
2022/09/04 05:10:11;;;;;;;34.63;21.48;;;;;;;13.75;100.00;101554.00;6054724;23;20064;-80
2022/09/04 05:13:08;;;;;;;35.17;21.65;;;;;;;13.83;100.00;101555.28;6155495;23;20005;-86
2022/09/04 05:16:03;;;;;;;34.55;21.90;;;;;;;13.88;100.00;101558.44;6155364;23;20033;-85
2022/09/04 05:18:33;;;;;;;32.53;21.75;;;;;;;13.94;100.00;101565.81;6155171;23;20002;-86
2022/09/04 05:21:16;;;;;;;34.67;21.60;;;;;;;13.98;100.00;101562.91;6155080;23;20037;-88
2022/09/04 05:23:52;;;;;;;30.20;21.38;;;;;;;14.04;99.91;101572.88;6155103;23;20006;-80
2022/09/04 05:26:17;;;;;;;32.22;21.63;;;;;;;14.03;99.81;101568.63;6155132;23;20005;-87
2022/09/04 05:28:55;;;;;;;35.95;21.23;;;;;;;14.12;99.98;101574.16;6154616;23;20091;-86
2022/09/04 05:31:29;;;;;;;32.17;21.33;;;;;;;13.99;99.74;101555.97;6154802;23;20088;-88
2022/09/04 05:34:18;;;;;;;30.30;21.20;;;;;;;14.23;100.00;101582.06;6155268;23;20052;-81
2022/09/04 05:37:14;;;;;;;30.70;21.90;;;;;;;14.31;100.00;101598.00;6156220;23;20486;-95
2022/09/04 05:40:10;;;;;;;33.70;21.85;;;;;;;14.41;100.00;101593.00;6158537;23;20005;-95
2022/09/04 05:42:57;;;;;;;31.27;21.95;;;;;;;14.40;100.00;101579.19;6011570;23;20008;-83
2022/09/04 05:45:35;;;;;;;33.97;23.17;;;;;;;14.64;100.00;101603.53;6010361;23;20007;-94
2022/09/04 05:48:05;;;;;;;35.03;23.33;;;;;;;14.63;100.00;101586.28;6010938;23;20004;-91
2022/09/04 05:50:59;;;;;;;30.83;22.58;;;;;;;14.84;100.00;101615.19;6013829;23;20028;-95
2022/09/04 05:53:57;;;;;;;33.22;23.17;;;;;;;15.00;100.00;101614.97;6015435;23;20018;-87
2022/09/04 05:56:31;;;;;;;31.95;21.95;;;;;;;15.19;99.14;101617.97;6021375;23;20011;-96
2022/09/04 05:59:04;;;;;;;32.83;23.35;;;;;;;15.37;98.99;101615.03;6022445;23;20128;-83
2022/09/04 06:01:54;;;;;;;28.48;22.45;;;;;;;15.62;97.78;101624.53;6013971;23;20087;-92
2022/09/04 06:04:40;;;;;;;30.65;21.80;;;;;;;16.11;96.66;101626.19;6014529;23;20108;-95
2022/09/04 06:07:24;;;;;;;36.08;21.65;;;;;;;16.41;93.67;101626.53;6012049;23;20015;-93
2022/09/04 06:10:15;;;;;;;28.83;21.70;;;;;;;16.49;93.02;101610.31;6009863;23;20373;-89
2022/09/04 06:12:53;;;;;;;19.47;14.80;;;;;;;16.89;90.47;101595.09;6009730;23;20039;-92
2022/09/04 06:15:24;;;;;;;23.35;17.40;;;;;;;17.71;87.48;101614.72;6009611;23;20011;-92
2022/09/04 06:18:18;;;;;;;20.25;15.15;;;;;;;18.70;83.01;101623.16;6009222;23;20094;-90
2022/09/04 06:21:06;;;;;;;21.10;14.70;;;;;;;19.96;79.60;101591.09;6142854;23;20068;-88
2022/09/04 06:24:03;;;;;;;22.35;15.20;;;;;;;21.02;74.70;101625.91;6156871;23;20037;-87
2022/09/04 06:26:31;;;;;;;23.33;15.07;;;;;;;21.48;69.57;101625.03;6156615;23;20006;-89
2022/09/04 06:29:10;;;;;;;19.08;13.45;;;;;;;21.45;69.71;101615.63;6156783;23;20040;-86
2022/09/04 06:32:03;;;;;;;19.00;15.13;;;;;;;21.93;70.26;101616.25;6155388;23;20009;-89
2022/09/04 06:35:02;;;;;;;15.63;11.95;;;;;;;22.89;66.25;101632.91;6130545;23;20005;-89
2022/09/04 06:37:33;;;;;;;22.05;17.08;;;;;;;23.14;62.98;101634.66;6156565;23;20308;-88
2022/09/04 06:43:46;;;;;;;19.02;14.10;;;;;;;23.82;63.30;101640.78;6126970;23;19919;-89
2022/09/04 06:46:52;;;;;;;18.08;14.93;;;;;;;24.11;62.10;101638.50;6127678;23;20010;-88
2022/09/04 06:49:28;;;;;;;19.70;15.00;;;;;;;23.45;58.21;101483.84;6126051;23;20029;-87
2022/09/04 06:52:22;;;;;;;18.38;13.15;;;;;;;24.87;58.70;101643.31;6100968;23;20061;-89
2022/09/04 06:55:12;;;;;;;19.95;14.07;;;;;;;25.09;56.15;101656.84;6126860;23;20389;-84
2022/09/04 06:57:48;;;;;;;15.75;11.75;;;;;;;25.50;55.46;101633.66;6127343;23;20010;-83
2022/09/04 07:00:15;;;;;;;18.40;13.35;;;;;;;25.70;52.75;101642.00;6126957;23;20006;-91
2022/09/04 07:03:17;;;;;;;17.50;13.30;;;;;;;25.69;55.52;101641.13;6126908;23;20005;-86
2022/09/04 07:06:13;;;;;;;15.07;11.05;;;;;;;24.60;56.94;101639.28;6126616;23;20026;-89
2022/09/04 07:09:13;;;;;;;17.90;12.80;;;;;;;23.52;60.10;101645.66;6126683;23;20009;-87
2022/09/04 07:12:23;;;;;;;15.85;12.02;;;;;;;22.78;61.55;101654.22;6126497;23;20010;-86
2022/09/04 07:15:25;;;;;;;16.02;11.48;;;;;;;22.15;63.83;101655.28;5981045;24;20072;-87
2022/09/04 07:18:09;;;;;;;14.45;10.90;;;;;;;21.78;65.58;101663.28;5982011;23;20019;-92
2022/09/04 07:20:53;;;;;;;17.80;12.85;;;;;;;21.46;67.19;101655.88;5957647;24;20020;-89
2022/09/04 07:23:31;;;;;;;22.48;16.05;;;;;;;21.26;68.88;101659.56;5982354;24;20099;-89
2022/09/04 07:25:56;;;;;;;21.27;14.50;;;;;;;21.14;68.57;101661.56;5957532;24;20015;-89
2022/09/04 07:29:09;;;;;;;19.63;15.10;;;;;;;21.03;69.52;101657.28;5980764;24;20016;-92
2022/09/04 07:31:47;;;;;;;24.23;18.63;;;;;;;20.85;71.57;101657.22;5951270;24;20019;-89
2022/09/04 07:34:20;;;;;;;19.52;13.38;;;;;;;20.94;70.59;101662.56;5980537;24;20507;-87
2022/09/04 07:36:58;;;;;;;22.13;17.42;;;;;;;20.84;71.17;101655.59;6056995;23;20022;-89
2022/09/04 07:40:04;;;;;;;26.05;16.35;;;;;;;20.99;71.86;101679.56;6126631;23;20034;-88
2022/09/04 07:42:51;;;;;;;16.58;12.43;;;;;;;21.12;71.01;101676.59;6100001;23;20010;-89
2022/09/04 07:45:50;;;;;;;18.05;13.48;;;;;;;20.61;71.02;101592.09;6126812;23;20523;-86
2022/09/04 07:48:42;;;;;;;25.48;16.98;;;;;;;21.13;71.77;101683.50;6126148;23;20006;-92
2022/09/04 07:51:22;;;;;;;20.95;14.80;;;;;;;21.21;71.40;101686.25;6126249;23;20002;-81
2022/09/04 07:54:25;;;;;;;20.30;15.93;;;;;;;21.22;70.98;101687.91;6126483;23;20002;-86
2022/09/04 07:57:32;;;;;;;24.95;16.05;;;;;;;21.13;71.58;101675.63;6126064;23;20541;-89
2022/09/04 08:00:05;;;;;;;25.77;17.95;;;;;;;20.98;72.00;101646.41;6126328;23;20010;-86
2022/09/04 08:02:44;;;;;;;20.40;16.10;;;;;;;21.40;71.40;101698.50;6125872;23;20010;-86
2022/09/04 08:05:28;;;;;;;22.45;16.85;;;;;;;21.50;71.65;101698.44;6126116;23;20037;-87
2022/09/04 08:08:41;;;;;;;21.00;17.00;;;;;;;21.56;70.98;101684.72;6126210;23;20332;-85
2022/09/04 08:11:12;;;;;;;23.35;15.25;;;;;;;21.66;69.68;101686.34;5957022;24;20312;-88
2022/09/04 08:14:08;;;;;;;17.13;12.55;;;;;;;21.69;69.93;101700.97;5980412;24;20019;-86
2022/09/04 08:16:42;;;;;;;20.85;16.17;;;;;;;21.74;70.41;101704.81;5980139;24;20036;-89
2022/09/04 08:19:23;;;;;;;23.00;15.68;;;;;;;21.88;69.84;101705.28;5980187;24;20047;-85
2022/09/04 08:21:51;;;;;;;22.60;17.42;;;;;;;22.05;70.01;101702.66;5980414;24;20039;-89
2022/09/04 08:24:57;;;;;;;17.95;14.02;;;;;;;22.23;69.28;101707.13;5980362;24;20482;-83
2022/09/04 08:28:02;;;;;;;20.05;15.68;;;;;;;22.22;68.74;101703.69;5979812;24;20042;-88
2022/09/04 08:30:38;;;;;;;23.48;17.08;;;;;;;22.20;69.14;101710.88;5926616;24;20072;-83
2022/09/04 08:33:37;;;;;;;21.98;16.02;;;;;;;22.24;69.04;101717.50;5924880;24;20019;-91
2022/09/04 08:36:16;;;;;;;23.65;16.40;;;;;;;22.38;68.57;101721.41;5924397;24;20024;-84
2022/09/04 08:38:54;;;;;;;20.08;15.73;;;;;;;22.39;68.95;101719.59;5937758;24;20012;-88
2022/09/04 08:41:50;;;;;;;22.05;17.42;;;;;;;22.39;68.70;101725.69;5977477;23;20428;-84
2022/09/04 08:44:53;;;;;;;23.92;16.02;;;;;;;22.45;69.50;101730.34;6065369;23;20015;-85
2022/09/04 08:47:18;;;;;;;24.27;17.25;;;;;;;22.47;68.08;101722.28;6068446;23;20018;-86
2022/09/04 08:50:22;;;;;;;21.23;16.20;;;;;;;22.52;68.43;101731.41;6065471;23;20386;-90
2022/09/04 08:53:09;;;;;;;24.70;16.93;;;;;;;22.52;68.61;101733.19;6068156;23;20405;-82
2022/09/04 08:55:45;;;;;;;23.45;17.50;;;;;;;22.50;68.29;101730.69;6065195;23;20247;-83
2022/09/04 08:58:28;;;;;;;23.05;16.80;;;;;;;22.52;68.41;101725.31;6065150;23;20493;-82
2022/09/04 09:01:15;;;;;;;21.40;15.25;;;;;;;22.56;67.62;101735.38;6065207;23;20022;-82
2022/09/04 09:04:25;;;;;;;23.30;16.25;;;;;;;22.66;67.98;101731.81;6065244;23;20019;-84
2022/09/04 09:07:12;;;;;;;22.42;15.35;;;;;;;22.75;67.93;101734.34;6117527;23;20360;-83
2022/09/04 09:09:57;;;;;;;19.65;15.55;;;;;;;22.64;67.43;101725.88;6125927;23;20005;-87
2022/09/04 09:12:34;;;;;;;23.85;14.30;;;;;;;22.85;67.08;101735.13;6124897;23;20005;-82
2022/09/04 09:15:35;;;;;;;21.58;16.13;;;;;;;22.96;66.86;101736.66;6125363;23;20018;-82
2022/09/04 09:18:04;;;;;;;21.67;14.52;;;;;;;23.02;65.89;101725.50;6126306;23;20029;-78
2022/09/04 09:20:51;;;;;;;21.33;15.18;;;;;;;23.11;66.15;101714.03;6125394;23;20534;-83
2022/09/04 09:23:53;;;;;;;20.38;14.25;;;;;;;23.52;65.74;101731.84;6125418;23;20029;-85
2022/09/04 09:26:28;;;;;;;18.27;13.32;;;;;;;23.75;63.58;101738.19;6125220;23;20006;-80
2022/09/04 09:29:05;;;;;;;20.40;14.10;;;;;;;23.80;63.76;101728.00;6125642;23;20503;-87
2022/09/04 09:31:52;;;;;;;21.30;13.05;;;;;;;23.87;63.70;101725.53;6125681;23;20010;-82
2022/09/04 09:34:51;;;;;;;14.75;11.15;;;;;;;23.93;63.68;101727.53;6125758;23;20013;-82
2022/09/04 09:37:35;;;;;;;17.98;12.15;;;;;;;23.93;62.55;101730.16;6099344;23;20413;-83
2022/09/04 09:40:22;;;;;;;14.57;11.40;;;;;;;23.95;62.53;101720.28;6099604;23;20069;-85
2022/09/04 09:43:23;;;;;;;17.27;11.60;;;;;;;23.92;62.40;101728.53;6125588;23;20380;-76
2022/09/04 09:46:16;;;;;;;15.10;9.67;;;;;;;23.97;62.03;101718.28;6125444;23;20067;-78
2022/09/04 09:49:03;;;;;;;16.15;10.07;;;;;;;24.08;61.69;101725.06;6125654;23;20010;-78
2022/09/04 09:52:05;;;;;;;16.48;10.77;;;;;;;24.06;61.24;101727.88;6125501;23;20014;-81
2022/09/04 09:55:09;;;;;;;17.05;11.80;;;;;;;24.07;60.91;101723.41;6125189;23;20495;-79
2022/09/04 09:58:14;;;;;;;15.77;10.15;;;;;;;24.15;60.83;101726.06;6125101;23;20010;-83
2022/09/04 10:00:57;;;;;;;14.15;8.57;;;;;;;24.10;60.72;101718.66;6125666;23;20011;-79
2022/09/04 10:03:38;;;;;;;14.75;7.07;;;;;;;24.24;60.33;101720.63;6125124;23;20076;-78
2022/09/04 10:06:27;;;;;;;9.98;6.07;;;;;;;24.29;59.02;101728.91;6125420;23;20010;-81
2022/09/04 10:09:20;;;;;;;10.52;5.88;;;;;;;24.35;59.56;101727.44;6125267;23;20010;-77
2022/09/04 10:12:30;;;;;;;11.90;6.78;;;;;;;24.50;58.82;101719.69;6125354;23;20052;-83
2022/09/04 10:15:36;;;;;;;12.00;6.43;;;;;;;24.65;58.38;101717.19;6125363;23;20010;-76
2022/09/04 10:18:01;;;;;;;9.40;5.55;;;;;;;24.89;58.07;101717.16;6123299;23;20009;-76
2022/09/04 10:20:46;;;;;;;9.35;5.43;;;;;;;24.87;57.18;101705.91;6125296;23;20081;-76
2022/09/04 10:23:14;;;;;;;8.73;5.22;;;;;;;25.20;55.52;101719.91;6126505;23;20009;-80
2022/09/04 10:26:15;;;;;;;8.18;4.68;;;;;;;25.48;55.86;101724.75;6126980;23;20005;-82
2022/09/04 10:28:55;;;;;;;9.98;4.82;;;;;;;25.54;54.65;101724.88;5980899;24;20043;-81
2022/09/04 10:31:43;;;;;;;8.10;4.47;;;;;;;25.68;54.76;101723.31;5981248;24;20060;-84
2022/09/04 10:34:37;;;;;;;7.38;4.65;;;;;;;25.74;54.24;101728.75;5979782;24;20012;-79
2022/09/04 10:37:34;;;;;;;7.80;4.68;;;;;;;25.60;54.34;101707.50;5981040;24;20105;-89
2022/09/04 10:40:42;;;;;;;7.55;4.60;;;;;;;25.63;54.77;101736.22;5981141;24;20031;-81
2022/09/04 10:43:37;;;;;;;9.65;4.93;;;;;;;25.58;54.69;101738.59;5980995;24;20012;-76
2022/09/04 10:46:13;;;;;;;10.40;5.47;;;;;;;25.58;54.36;101709.50;5981213;23;20044;-78
2022/09/04 10:49:13;;;;;;;8.60;4.95;;;;;;;25.92;53.90;101725.03;5980995;24;20387;-75
2022/09/04 10:51:53;;;;;;;10.65;5.70;;;;;;;26.22;51.66;101732.06;5980709;24;20020;-81
2022/09/04 10:54:43;;;;;;;8.57;5.43;;;;;;;26.58;51.33;101726.19;5980885;24;20019;-75
2022/09/04 10:57:11;;;;;;;10.83;5.67;;;;;;;26.74;50.74;101725.19;5980886;24;20047;-74
2022/09/04 10:59:51;;;;;;;9.80;6.07;;;;;;;26.78;50.11;101721.19;5980846;24;20084;-78
2022/09/04 11:02:50;;;;;;;12.57;4.70;;;;;;;26.87;49.17;101728.06;5981004;24;20489;-75
2022/09/04 11:05:51;;;;;;;5.95;3.50;;;;;;;26.91;48.87;101724.03;6020695;23;20277;-85
2022/09/04 11:08:44;;;;;;;6.68;3.50;;;;;;;26.95;49.08;101720.03;6116363;23;20006;-84
2022/09/04 11:11:25;;;;;;;5.03;3.13;;;;;;;26.90;48.31;101724.22;6126422;23;20099;-86
2022/09/04 11:14:02;;;;;;;5.72;2.97;;;;;;;26.72;47.63;101719.25;6126607;23;20010;-84
2022/09/04 11:17:06;;;;;;;6.07;3.00;;;;;;;26.85;48.03;101725.59;6126364;23;20006;-78
2022/09/04 11:19:50;;;;;;;4.40;2.95;;;;;;;26.97;45.72;101722.50;5980628;24;20370;-77
2022/09/04 11:22:33;;;;;;;5.60;3.10;;;;;;;27.01;46.50;101724.56;5980719;24;20438;-82
2022/09/04 11:25:26;;;;;;;4.35;2.83;;;;;;;27.00;45.76;101717.63;5981084;24;20008;-83
2022/09/04 11:28:01;;;;;;;5.75;2.63;;;;;;;26.78;46.51;101702.66;5980868;24;20446;-78
2022/09/04 11:30:31;;;;;;;5.05;2.90;;;;;;;26.92;45.84;101722.19;5980598;24;20012;-76
2022/09/04 11:33:17;;;;;;;5.43;3.42;;;;;;;26.91;45.60;101724.03;5980722;24;20015;-78
2022/09/04 11:36:13;;;;;;;4.90;3.05;;;;;;;27.06;46.35;101724.06;5980121;24;20004;-81
2022/09/04 11:39:06;;;;;;;6.22;3.33;;;;;;;27.13;46.78;101727.63;5980695;24;20012;-76
2022/09/04 11:42:10;;;;;;;7.97;3.10;;;;;;;27.26;46.12;101722.50;5980729;24;20008;-75
2022/09/04 11:44:35;;;;;;;5.68;3.22;;;;;;;27.30;44.34;101722.94;5952513;24;20023;-78
2022/09/04 11:47:19;;;;;;;7.15;3.30;;;;;;;27.15;43.74;101725.63;5953076;24;20427;-77
2022/09/04 11:50:17;;;;;;;6.72;3.28;;;;;;;26.87;44.28;101715.63;5929166;24;20044;-79
2022/09/04 11:53:27;;;;;;;6.95;3.15;;;;;;;26.80;44.84;101722.66;5952464;24;20009;-78
2022/09/04 11:56:20;;;;;;;6.00;3.30;;;;;;;26.60;46.10;101718.88;5972074;23;20022;-77
2022/09/04 11:59:03;;;;;;;7.05;3.30;;;;;;;26.54;45.86;101717.75;6065590;23;20030;-77
2022/09/04 12:02:10;;;;;;;4.93;3.20;;;;;;;26.64;46.63;101719.34;6065666;23;20069;-78
2022/09/04 12:04:48;;;;;;;5.88;3.30;;;;;;;26.85;45.08;101728.25;6065616;23;20007;-78
2022/09/04 12:07:43;;;;;;;6.38;3.50;;;;;;;27.02;45.57;101715.66;6065827;23;20014;-77
2022/09/04 12:10:27;;;;;;;5.88;3.30;;;;;;;27.08;45.33;101736.13;6065991;23;20073;-76
2022/09/04 12:13:15;;;;;;;10.73;3.85;;;;;;;27.00;43.24;101728.25;6065574;23;20019;-78
2022/09/04 12:15:43;;;;;;;5.85;3.60;;;;;;;27.07;42.67;101734.50;6065166;23;20002;-80
2022/09/04 12:18:33;;;;;;;8.80;3.50;;;;;;;27.21;42.40;101734.66;6065155;23;20011;-78
2022/09/04 12:21:36;;;;;;;9.57;3.60;;;;;;;27.22;40.51;101736.31;6115371;23;20006;-79
2022/09/04 12:24:04;;;;;;;7.90;3.80;;;;;;;27.26;40.98;101737.59;6125613;23;20005;-75
2022/09/04 12:26:42;;;;;;;5.38;3.35;;;;;;;27.31;41.42;101743.16;6125592;23;20439;-75
2022/09/04 12:29:17;;;;;;;7.40;3.78;;;;;;;27.28;40.64;101743.53;6126003;23;20016;-73
2022/09/04 12:31:57;;;;;;;7.53;4.07;;;;;;;27.29;40.55;101740.69;6126321;23;20002;-78
2022/09/04 12:34:53;;;;;;;6.85;3.63;;;;;;;27.29;39.98;101743.34;6125909;23;20419;-77
2022/09/04 12:37:52;;;;;;;7.75;3.67;;;;;;;27.35;41.36;101742.63;5979936;23;20023;-76
2022/09/04 12:40:40;;;;;;;7.90;3.90;;;;;;;27.37;39.34;101737.94;5980227;24;20016;-75
2022/09/04 12:43:22;;;;;;;6.40;3.15;;;;;;;27.37;39.28;101739.78;5980407;24;20012;-78